sensor_id;sensor_type;location;lat;lon;timestamp;temperature;humidity
2226;DHT22;1119;48.288;8.726;2023-02-28T00:00:45;-2.50;90.60
2226;DHT22;1119;48.288;8.726;2023-02-28T00:03:33;-2.50;90.80
2226;DHT22;1119;48.288;8.726;2023-02-28T00:06:22;-2.50;90.90
2226;DHT22;1119;48.288;8.726;2023-02-28T00:09:11;-2.50;91.00
2226;DHT22;1119;48.288;8.726;2023-02-28T00:11:58;-2.60;91.30
2226;DHT22;1119;48.288;8.726;2023-02-28T00:14:46;-2.60;91.10
2226;DHT22;1119;48.288;8.726;2023-02-28T00:17:33;-2.60;91.20
2226;DHT22;1119;48.288;8.726;2023-02-28T00:20:21;-2.60;91.30
2226;DHT22;1119;48.288;8.726;2023-02-28T00:23:10;-2.60;91.80
2226;DHT22;1119;48.288;8.726;2023-02-28T00:25:58;-2.70;91.80
2226;DHT22;1119;48.288;8.726;2023-02-28T00:28:45;-2.70;92.10
2226;DHT22;1119;48.288;8.726;2023-02-28T00:31:34;-2.70;92.10
2226;DHT22;1119;48.288;8.726;2023-02-28T00:34:21;-2.70;92.30
2226;DHT22;1119;48.288;8.726;2023-02-28T00:37:11;-2.80;92.50
2226;DHT22;1119;48.288;8.726;2023-02-28T00:40:00;-2.80;92.60
2226;DHT22;1119;48.288;8.726;2023-02-28T00:42:51;-2.70;92.60
2226;DHT22;1119;48.288;8.726;2023-02-28T00:45:38;-2.80;92.90
2226;DHT22;1119;48.288;8.726;2023-02-28T00:48:26;-2.80;93.00
2226;DHT22;1119;48.288;8.726;2023-02-28T00:51:13;-2.80;93.20
2226;DHT22;1119;48.288;8.726;2023-02-28T00:54:01;-2.80;93.30
2226;DHT22;1119;48.288;8.726;2023-02-28T00:56:50;-2.70;93.40
2226;DHT22;1119;48.288;8.726;2023-02-28T00:59:37;-2.70;93.50
2226;DHT22;1119;48.288;8.726;2023-02-28T01:02:26;-2.70;93.70
2226;DHT22;1119;48.288;8.726;2023-02-28T01:05:14;-2.80;93.80
2226;DHT22;1119;48.288;8.726;2023-02-28T01:08:01;-2.80;94.10
2226;DHT22;1119;48.288;8.726;2023-02-28T01:10:49;-2.70;94.40
2226;DHT22;1119;48.288;8.726;2023-02-28T01:13:38;-2.80;94.80
2226;DHT22;1119;48.288;8.726;2023-02-28T01:16:26;-2.80;94.80
2226;DHT22;1119;48.288;8.726;2023-02-28T01:19:14;-2.80;95.30
2226;DHT22;1119;48.288;8.726;2023-02-28T01:22:03;-2.80;95.90
2226;DHT22;1119;48.288;8.726;2023-02-28T01:24:52;-2.80;96.00
2226;DHT22;1119;48.288;8.726;2023-02-28T01:27:40;-2.90;96.10
2226;DHT22;1119;48.288;8.726;2023-02-28T01:30:28;-2.90;96.70
2226;DHT22;1119;48.288;8.726;2023-02-28T01:33:16;-2.90;97.50
2226;DHT22;1119;48.288;8.726;2023-02-28T01:36:06;-2.90;97.60
2226;DHT22;1119;48.288;8.726;2023-02-28T01:38:55;-3.00;97.70
2226;DHT22;1119;48.288;8.726;2023-02-28T01:41:43;-3.00;98.40
2226;DHT22;1119;48.288;8.726;2023-02-28T01:44:55;-3.00;98.90
2226;DHT22;1119;48.288;8.726;2023-02-28T01:47:48;-3.00;99.70
2226;DHT22;1119;48.288;8.726;2023-02-28T01:50:40;-3.00;99.90
2226;DHT22;1119;48.288;8.726;2023-02-28T01:53:33;-3.10;99.90
2226;DHT22;1119;48.288;8.726;2023-02-28T01:56:25;-3.10;99.90
2226;DHT22;1119;48.288;8.726;2023-02-28T01:59:22;-3.10;99.90
2226;DHT22;1119;48.288;8.726;2023-02-28T02:02:12;-3.20;99.90
2226;DHT22;1119;48.288;8.726;2023-02-28T02:05:07;-3.20;99.90
2226;DHT22;1119;48.288;8.726;2023-02-28T02:08:01;-3.20;99.90
2226;DHT22;1119;48.288;8.726;2023-02-28T02:10:52;-3.20;99.90
2226;DHT22;1119;48.288;8.726;2023-02-28T02:14:23;-3.30;99.90
2226;DHT22;1119;48.288;8.726;2023-02-28T02:17:32;-3.20;99.90
2226;DHT22;1119;48.288;8.726;2023-02-28T02:24:21;-3.30;99.90
2226;DHT22;1119;48.288;8.726;2023-02-28T02:27:48;-3.30;99.90
2226;DHT22;1119;48.288;8.726;2023-02-28T02:31:20;-3.40;99.90
2226;DHT22;1119;48.288;8.726;2023-02-28T02:34:55;-3.40;99.90
2226;DHT22;1119;48.288;8.726;2023-02-28T02:37:50;-3.40;99.90
2226;DHT22;1119;48.288;8.726;2023-02-28T02:40:43;-3.40;99.90
2226;DHT22;1119;48.288;8.726;2023-02-28T02:43:36;-3.40;99.90
2226;DHT22;1119;48.288;8.726;2023-02-28T02:46:31;-3.40;99.90
2226;DHT22;1119;48.288;8.726;2023-02-28T02:49:24;-3.40;99.90
2226;DHT22;1119;48.288;8.726;2023-02-28T02:52:20;-3.40;99.90
2226;DHT22;1119;48.288;8.726;2023-02-28T02:55:11;-3.50;99.90
2226;DHT22;1119;48.288;8.726;2023-02-28T02:58:02;-3.50;99.90
2226;DHT22;1119;48.288;8.726;2023-02-28T03:00:54;-3.50;99.90
2226;DHT22;1119;48.288;8.726;2023-02-28T03:03:45;-3.50;99.90
2226;DHT22;1119;48.288;8.726;2023-02-28T03:06:33;-3.50;99.90
2226;DHT22;1119;48.288;8.726;2023-02-28T03:09:22;-3.50;99.90
2226;DHT22;1119;48.288;8.726;2023-02-28T03:12:12;-3.60;99.90
2226;DHT22;1119;48.288;8.726;2023-02-28T03:15:07;-3.60;99.90
2226;DHT22;1119;48.288;8.726;2023-02-28T03:18:04;-3.60;99.90
2226;DHT22;1119;48.288;8.726;2023-02-28T03:21:06;-3.70;99.90
2226;DHT22;1119;48.288;8.726;2023-02-28T03:24:03;-3.70;99.90
2226;DHT22;1119;48.288;8.726;2023-02-28T03:26:57;-3.70;99.90
2226;DHT22;1119;48.288;8.726;2023-02-28T03:29:51;-3.70;99.90
2226;DHT22;1119;48.288;8.726;2023-02-28T03:32:51;-3.70;99.90
2226;DHT22;1119;48.288;8.726;2023-02-28T03:35:43;-3.70;99.90
2226;DHT22;1119;48.288;8.726;2023-02-28T03:38:38;-3.70;99.90
2226;DHT22;1119;48.288;8.726;2023-02-28T03:41:31;-3.80;99.90
2226;DHT22;1119;48.288;8.726;2023-02-28T03:44:24;-3.80;99.90
2226;DHT22;1119;48.288;8.726;2023-02-28T03:47:17;-3.80;99.90
2226;DHT22;1119;48.288;8.726;2023-02-28T03:50:13;-3.80;99.90
2226;DHT22;1119;48.288;8.726;2023-02-28T03:53:06;-3.80;99.90
2226;DHT22;1119;48.288;8.726;2023-02-28T03:55:59;-3.80;99.90
2226;DHT22;1119;48.288;8.726;2023-02-28T03:58:54;-3.80;99.90
2226;DHT22;1119;48.288;8.726;2023-02-28T04:01:47;-3.80;99.90
2226;DHT22;1119;48.288;8.726;2023-02-28T04:04:36;-3.80;99.90
2226;DHT22;1119;48.288;8.726;2023-02-28T04:07:23;-3.80;99.90
2226;DHT22;1119;48.288;8.726;2023-02-28T04:10:12;-3.90;99.90
2226;DHT22;1119;48.288;8.726;2023-02-28T04:13:00;-3.80;99.90
2226;DHT22;1119;48.288;8.726;2023-02-28T04:15:47;-3.80;99.90
2226;DHT22;1119;48.288;8.726;2023-02-28T04:18:36;-3.80;99.90
2226;DHT22;1119;48.288;8.726;2023-02-28T04:21:24;-3.80;99.90
2226;DHT22;1119;48.288;8.726;2023-02-28T04:24:13;-3.90;99.90
2226;DHT22;1119;48.288;8.726;2023-02-28T04:27:03;-3.90;99.90
2226;DHT22;1119;48.288;8.726;2023-02-28T04:29:50;-3.90;99.90
2226;DHT22;1119;48.288;8.726;2023-02-28T04:32:38;-3.90;99.90
2226;DHT22;1119;48.288;8.726;2023-02-28T04:35:27;-3.90;99.90
2226;DHT22;1119;48.288;8.726;2023-02-28T04:38:14;-3.90;99.90
2226;DHT22;1119;48.288;8.726;2023-02-28T04:41:02;-3.90;99.90
2226;DHT22;1119;48.288;8.726;2023-02-28T04:43:51;-3.90;99.90
2226;DHT22;1119;48.288;8.726;2023-02-28T04:46:39;-4.00;99.90
2226;DHT22;1119;48.288;8.726;2023-02-28T04:49:27;-3.90;99.90
2226;DHT22;1119;48.288;8.726;2023-02-28T04:52:15;-3.90;99.90
2226;DHT22;1119;48.288;8.726;2023-02-28T04:55:10;-4.00;99.90
2226;DHT22;1119;48.288;8.726;2023-02-28T04:57:58;-4.00;99.90
2226;DHT22;1119;48.288;8.726;2023-02-28T05:00:45;-4.00;99.90
2226;DHT22;1119;48.288;8.726;2023-02-28T05:03:33;-4.00;99.90
2226;DHT22;1119;48.288;8.726;2023-02-28T05:06:21;-4.00;99.90
2226;DHT22;1119;48.288;8.726;2023-02-28T05:09:12;-4.00;99.90
2226;DHT22;1119;48.288;8.726;2023-02-28T05:11:59;-4.00;99.90
2226;DHT22;1119;48.288;8.726;2023-02-28T05:14:47;-4.00;99.90
2226;DHT22;1119;48.288;8.726;2023-02-28T05:17:35;-4.00;99.90
2226;DHT22;1119;48.288;8.726;2023-02-28T05:20:22;-3.90;99.90
2226;DHT22;1119;48.288;8.726;2023-02-28T05:23:11;-4.00;99.90
2226;DHT22;1119;48.288;8.726;2023-02-28T05:26:01;-4.00;99.90
2226;DHT22;1119;48.288;8.726;2023-02-28T05:28:49;-4.00;99.90
2226;DHT22;1119;48.288;8.726;2023-02-28T05:31:37;-3.90;99.90
2226;DHT22;1119;48.288;8.726;2023-02-28T05:34:24;-3.90;99.90
2226;DHT22;1119;48.288;8.726;2023-02-28T05:37:13;-3.90;99.90
2226;DHT22;1119;48.288;8.726;2023-02-28T05:40:02;-4.00;99.90
2226;DHT22;1119;48.288;8.726;2023-02-28T05:42:53;-3.90;99.90
2226;DHT22;1119;48.288;8.726;2023-02-28T05:45:41;-3.90;99.90
2226;DHT22;1119;48.288;8.726;2023-02-28T05:48:28;-3.90;99.90
2226;DHT22;1119;48.288;8.726;2023-02-28T05:51:16;-3.90;99.90
2226;DHT22;1119;48.288;8.726;2023-02-28T05:54:04;-3.90;99.90
2226;DHT22;1119;48.288;8.726;2023-02-28T05:56:52;-3.80;99.90
2226;DHT22;1119;48.288;8.726;2023-02-28T05:59:41;-3.80;99.90
2226;DHT22;1119;48.288;8.726;2023-02-28T06:02:29;-3.80;99.90
2226;DHT22;1119;48.288;8.726;2023-02-28T06:05:17;-3.70;99.90
2226;DHT22;1119;48.288;8.726;2023-02-28T06:08:05;-3.70;99.90
2226;DHT22;1119;48.288;8.726;2023-02-28T06:10:53;-3.70;99.90
2226;DHT22;1119;48.288;8.726;2023-02-28T06:13:40;-3.70;99.90
2226;DHT22;1119;48.288;8.726;2023-02-28T06:16:31;-3.70;99.90
2226;DHT22;1119;48.288;8.726;2023-02-28T06:19:20;-3.70;99.90
2226;DHT22;1119;48.288;8.726;2023-02-28T06:22:08;-3.70;99.90
2226;DHT22;1119;48.288;8.726;2023-02-28T06:24:55;-3.80;99.90
2226;DHT22;1119;48.288;8.726;2023-02-28T06:27:44;-3.80;99.90
2226;DHT22;1119;48.288;8.726;2023-02-28T06:30:31;-3.70;99.90
2226;DHT22;1119;48.288;8.726;2023-02-28T06:33:21;-3.70;99.90
2226;DHT22;1119;48.288;8.726;2023-02-28T06:36:10;-3.70;99.90
2226;DHT22;1119;48.288;8.726;2023-02-28T06:38:59;-3.60;99.90
2226;DHT22;1119;48.288;8.726;2023-02-28T06:41:47;-3.60;99.90
2226;DHT22;1119;48.288;8.726;2023-02-28T06:44:35;-3.60;99.90
2226;DHT22;1119;48.288;8.726;2023-02-28T06:47:22;-3.60;99.90
2226;DHT22;1119;48.288;8.726;2023-02-28T06:50:12;-3.50;99.90
2226;DHT22;1119;48.288;8.726;2023-02-28T06:53:00;-3.60;99.90
2226;DHT22;1119;48.288;8.726;2023-02-28T06:55:47;-3.50;99.90
2226;DHT22;1119;48.288;8.726;2023-02-28T06:58:35;-3.50;99.90
2226;DHT22;1119;48.288;8.726;2023-02-28T07:01:23;-3.50;99.90
2226;DHT22;1119;48.288;8.726;2023-02-28T07:04:11;-3.50;99.90
2226;DHT22;1119;48.288;8.726;2023-02-28T07:07:00;-3.40;99.90
2226;DHT22;1119;48.288;8.726;2023-02-28T07:09:48;-3.40;99.90
2226;DHT22;1119;48.288;8.726;2023-02-28T07:12:37;-3.40;99.90
2226;DHT22;1119;48.288;8.726;2023-02-28T07:15:24;-3.40;99.90
2226;DHT22;1119;48.288;8.726;2023-02-28T07:18:12;-3.40;99.90
2226;DHT22;1119;48.288;8.726;2023-02-28T07:21:01;-3.40;99.90
2226;DHT22;1119;48.288;8.726;2023-02-28T07:23:51;-3.30;99.90
2226;DHT22;1119;48.288;8.726;2023-02-28T07:26:39;-3.30;99.90
2226;DHT22;1119;48.288;8.726;2023-02-28T07:29:26;-3.30;99.90
2226;DHT22;1119;48.288;8.726;2023-02-28T07:32:14;-3.30;99.90
2226;DHT22;1119;48.288;8.726;2023-02-28T07:35:02;-3.20;99.90
2226;DHT22;1119;48.288;8.726;2023-02-28T07:37:50;-3.20;99.90
2226;DHT22;1119;48.288;8.726;2023-02-28T07:40:39;-3.10;99.90
2226;DHT22;1119;48.288;8.726;2023-02-28T07:43:27;-3.10;99.90
2226;DHT22;1119;48.288;8.726;2023-02-28T07:46:16;-3.10;99.90
2226;DHT22;1119;48.288;8.726;2023-02-28T07:49:06;-3.10;99.90
2226;DHT22;1119;48.288;8.726;2023-02-28T07:51:53;-3.00;99.90
2226;DHT22;1119;48.288;8.726;2023-02-28T07:54:41;-3.00;99.90
2226;DHT22;1119;48.288;8.726;2023-02-28T07:57:30;-3.00;99.90
2226;DHT22;1119;48.288;8.726;2023-02-28T08:00:18;-2.90;99.90
2226;DHT22;1119;48.288;8.726;2023-02-28T08:03:07;-2.90;99.90
2226;DHT22;1119;48.288;8.726;2023-02-28T08:05:55;-2.90;99.90
2226;DHT22;1119;48.288;8.726;2023-02-28T08:08:43;-2.90;99.90
2226;DHT22;1119;48.288;8.726;2023-02-28T08:11:31;-2.90;99.90
2226;DHT22;1119;48.288;8.726;2023-02-28T08:14:20;-2.90;99.90
2226;DHT22;1119;48.288;8.726;2023-02-28T08:17:08;-2.90;99.90
2226;DHT22;1119;48.288;8.726;2023-02-28T08:19:56;-2.90;99.90
2226;DHT22;1119;48.288;8.726;2023-02-28T08:22:44;-2.90;99.90
2226;DHT22;1119;48.288;8.726;2023-02-28T08:25:31;-2.80;99.90
2226;DHT22;1119;48.288;8.726;2023-02-28T08:28:19;-2.80;99.90
2226;DHT22;1119;48.288;8.726;2023-02-28T08:31:09;-2.80;99.90
2226;DHT22;1119;48.288;8.726;2023-02-28T08:33:59;-2.70;99.90
2226;DHT22;1119;48.288;8.726;2023-02-28T08:36:47;-2.70;99.90
2226;DHT22;1119;48.288;8.726;2023-02-28T08:39:34;-2.60;99.90
2226;DHT22;1119;48.288;8.726;2023-02-28T08:42:23;-2.50;99.90
2226;DHT22;1119;48.288;8.726;2023-02-28T08:45:11;-2.50;99.90
2226;DHT22;1119;48.288;8.726;2023-02-28T08:48:00;-2.40;99.90
2226;DHT22;1119;48.288;8.726;2023-02-28T08:50:55;-2.40;99.90
2226;DHT22;1119;48.288;8.726;2023-02-28T08:53:43;-2.40;99.90
2226;DHT22;1119;48.288;8.726;2023-02-28T08:56:31;-2.30;99.90
2226;DHT22;1119;48.288;8.726;2023-02-28T08:59:19;-2.30;99.90
2226;DHT22;1119;48.288;8.726;2023-02-28T09:02:09;-2.30;99.90
2226;DHT22;1119;48.288;8.726;2023-02-28T09:04:59;-2.20;99.90
2226;DHT22;1119;48.288;8.726;2023-02-28T09:07:47;-2.10;99.90
2226;DHT22;1119;48.288;8.726;2023-02-28T09:10:35;-2.10;99.90
2226;DHT22;1119;48.288;8.726;2023-02-28T09:13:23;-2.00;99.90
2226;DHT22;1119;48.288;8.726;2023-02-28T09:16:12;-2.00;99.90
2226;DHT22;1119;48.288;8.726;2023-02-28T09:19:01;-2.00;99.90
2226;DHT22;1119;48.288;8.726;2023-02-28T09:21:50;-2.00;99.90
2226;DHT22;1119;48.288;8.726;2023-02-28T09:24:38;-1.90;99.90
2226;DHT22;1119;48.288;8.726;2023-02-28T09:27:26;-1.90;99.90
2226;DHT22;1119;48.288;8.726;2023-02-28T09:30:14;-1.80;99.90
2226;DHT22;1119;48.288;8.726;2023-02-28T09:33:02;-1.70;99.90
2226;DHT22;1119;48.288;8.726;2023-02-28T09:35:57;-1.60;99.90
2226;DHT22;1119;48.288;8.726;2023-02-28T09:38:51;-1.50;99.90
2226;DHT22;1119;48.288;8.726;2023-02-28T09:41:41;-1.50;99.90
2226;DHT22;1119;48.288;8.726;2023-02-28T09:44:37;-1.40;99.90
2226;DHT22;1119;48.288;8.726;2023-02-28T09:47:30;-1.30;99.90
2226;DHT22;1119;48.288;8.726;2023-02-28T09:50:28;-1.40;99.90
2226;DHT22;1119;48.288;8.726;2023-02-28T09:53:22;-1.40;99.90
2226;DHT22;1119;48.288;8.726;2023-02-28T09:56:20;-1.50;99.90
2226;DHT22;1119;48.288;8.726;2023-02-28T09:59:22;-1.50;99.90
2226;DHT22;1119;48.288;8.726;2023-02-28T10:02:40;-1.50;99.90
2226;DHT22;1119;48.288;8.726;2023-02-28T10:05:47;-1.40;99.90
2226;DHT22;1119;48.288;8.726;2023-02-28T10:08:43;-1.30;99.90
2226;DHT22;1119;48.288;8.726;2023-02-28T10:11:39;-1.40;99.90
2226;DHT22;1119;48.288;8.726;2023-02-28T10:14:31;-1.40;99.90
2226;DHT22;1119;48.288;8.726;2023-02-28T10:17:23;-1.50;99.90
2226;DHT22;1119;48.288;8.726;2023-02-28T10:20:14;-1.40;99.90
2226;DHT22;1119;48.288;8.726;2023-02-28T10:23:13;-1.40;99.90
2226;DHT22;1119;48.288;8.726;2023-02-28T10:26:11;-1.20;99.90
2226;DHT22;1119;48.288;8.726;2023-02-28T10:29:03;-1.20;99.90
2226;DHT22;1119;48.288;8.726;2023-02-28T10:31:51;-1.20;99.90
2226;DHT22;1119;48.288;8.726;2023-02-28T10:34:38;-1.20;99.90
2226;DHT22;1119;48.288;8.726;2023-02-28T10:37:26;-1.20;99.90
2226;DHT22;1119;48.288;8.726;2023-02-28T10:40:28;-1.10;99.90
2226;DHT22;1119;48.288;8.726;2023-02-28T10:43:23;-1.10;99.90
2226;DHT22;1119;48.288;8.726;2023-02-28T10:46:15;-0.90;99.90
2226;DHT22;1119;48.288;8.726;2023-02-28T10:49:17;-0.90;99.90
2226;DHT22;1119;48.288;8.726;2023-02-28T10:52:09;-0.80;99.90
2226;DHT22;1119;48.288;8.726;2023-02-28T10:55:14;-0.70;99.90
2226;DHT22;1119;48.288;8.726;2023-02-28T10:58:20;-0.70;99.70
2226;DHT22;1119;48.288;8.726;2023-02-28T11:01:14;-0.70;99.90
2226;DHT22;1119;48.288;8.726;2023-02-28T11:04:03;-0.80;99.90
2226;DHT22;1119;48.288;8.726;2023-02-28T11:07:05;-0.80;99.90
2226;DHT22;1119;48.288;8.726;2023-02-28T11:09:58;-0.70;99.90
2226;DHT22;1119;48.288;8.726;2023-02-28T11:12:46;-0.60;99.90
2226;DHT22;1119;48.288;8.726;2023-02-28T11:15:34;-0.60;99.80
2226;DHT22;1119;48.288;8.726;2023-02-28T11:18:27;-0.60;99.40
2226;DHT22;1119;48.288;8.726;2023-02-28T11:21:20;-0.60;99.70
2226;DHT22;1119;48.288;8.726;2023-02-28T11:24:24;-0.60;99.70
2226;DHT22;1119;48.288;8.726;2023-02-28T11:27:26;-0.50;99.50
2226;DHT22;1119;48.288;8.726;2023-02-28T11:30:35;-0.60;99.20
2226;DHT22;1119;48.288;8.726;2023-02-28T11:33:28;-0.50;99.30
2226;DHT22;1119;48.288;8.726;2023-02-28T11:36:19;-0.50;99.60
2226;DHT22;1119;48.288;8.726;2023-02-28T11:39:12;-0.50;99.40
2226;DHT22;1119;48.288;8.726;2023-02-28T11:42:11;-0.40;99.40
2226;DHT22;1119;48.288;8.726;2023-02-28T11:45:27;-0.30;99.30
2226;DHT22;1119;48.288;8.726;2023-02-28T11:48:30;-0.20;98.60
2226;DHT22;1119;48.288;8.726;2023-02-28T11:51:23;-0.20;98.30
2226;DHT22;1119;48.288;8.726;2023-02-28T11:54:49;-0.10;98.10
2226;DHT22;1119;48.288;8.726;2023-02-28T11:57:59;-0.10;98.30
2226;DHT22;1119;48.288;8.726;2023-02-28T12:01:23;0.10;98.50
2226;DHT22;1119;48.288;8.726;2023-02-28T12:04:25;0.20;97.60
2226;DHT22;1119;48.288;8.726;2023-02-28T12:07:22;0.10;97.30
2226;DHT22;1119;48.288;8.726;2023-02-28T12:10:21;0.10;97.40
2226;DHT22;1119;48.288;8.726;2023-02-28T12:13:18;0.10;97.60
2226;DHT22;1119;48.288;8.726;2023-02-28T12:16:32;0.10;97.40
2226;DHT22;1119;48.288;8.726;2023-02-28T12:19:43;0.10;97.10
2226;DHT22;1119;48.288;8.726;2023-02-28T12:22:37;0.10;97.20
2226;DHT22;1119;48.288;8.726;2023-02-28T12:25:47;0.10;97.50
2226;DHT22;1119;48.288;8.726;2023-02-28T12:28:40;0.30;97.50
2226;DHT22;1119;48.288;8.726;2023-02-28T12:31:33;0.30;97.10
2226;DHT22;1119;48.288;8.726;2023-02-28T12:34:27;0.30;98.00
2226;DHT22;1119;48.288;8.726;2023-02-28T12:37:23;0.50;97.70
2226;DHT22;1119;48.288;8.726;2023-02-28T12:40:15;0.70;97.50
2226;DHT22;1119;48.288;8.726;2023-02-28T12:43:07;0.70;96.80
2226;DHT22;1119;48.288;8.726;2023-02-28T12:45:58;0.70;96.50
2226;DHT22;1119;48.288;8.726;2023-02-28T12:48:49;0.60;97.10
2226;DHT22;1119;48.288;8.726;2023-02-28T12:51:41;0.60;96.70
2226;DHT22;1119;48.288;8.726;2023-02-28T12:54:35;0.50;96.20
2226;DHT22;1119;48.288;8.726;2023-02-28T12:57:34;0.30;96.50
2226;DHT22;1119;48.288;8.726;2023-02-28T13:00:27;0.30;96.30
2226;DHT22;1119;48.288;8.726;2023-02-28T13:03:37;0.20;96.20
2226;DHT22;1119;48.288;8.726;2023-02-28T13:07:05;0.20;96.60
2226;DHT22;1119;48.288;8.726;2023-02-28T13:10:15;0.30;96.00
2226;DHT22;1119;48.288;8.726;2023-02-28T13:13:04;0.40;96.40
2226;DHT22;1119;48.288;8.726;2023-02-28T13:16:01;0.70;96.80
2226;DHT22;1119;48.288;8.726;2023-02-28T13:18:51;1.10;96.20
2226;DHT22;1119;48.288;8.726;2023-02-28T13:21:43;1.00;95.60
2226;DHT22;1119;48.288;8.726;2023-02-28T13:24:41;0.80;95.70
2226;DHT22;1119;48.288;8.726;2023-02-28T13:27:39;0.60;96.00
2226;DHT22;1119;48.288;8.726;2023-02-28T13:31:00;0.50;96.40
2226;DHT22;1119;48.288;8.726;2023-02-28T13:34:11;0.50;96.30
2226;DHT22;1119;48.288;8.726;2023-02-28T13:37:31;0.50;96.50
2226;DHT22;1119;48.288;8.726;2023-02-28T13:40:29;0.60;95.80
2226;DHT22;1119;48.288;8.726;2023-02-28T13:43:59;0.70;95.90
2226;DHT22;1119;48.288;8.726;2023-02-28T13:47:21;0.80;96.20
2226;DHT22;1119;48.288;8.726;2023-02-28T13:50:23;0.80;95.70
2226;DHT22;1119;48.288;8.726;2023-02-28T13:53:47;0.80;95.70
2226;DHT22;1119;48.288;8.726;2023-02-28T13:56:47;0.80;95.40
2226;DHT22;1119;48.288;8.726;2023-02-28T13:59:48;0.80;95.50
2226;DHT22;1119;48.288;8.726;2023-02-28T14:02:53;0.90;95.50
2226;DHT22;1119;48.288;8.726;2023-02-28T14:06:18;1.00;95.70
2226;DHT22;1119;48.288;8.726;2023-02-28T14:09:19;1.00;95.20
2226;DHT22;1119;48.288;8.726;2023-02-28T14:12:52;1.10;95.40
2226;DHT22;1119;48.288;8.726;2023-02-28T14:15:47;1.20;94.90
2226;DHT22;1119;48.288;8.726;2023-02-28T14:18:37;1.30;94.40
2226;DHT22;1119;48.288;8.726;2023-02-28T14:21:30;1.30;94.40
2226;DHT22;1119;48.288;8.726;2023-02-28T14:24:32;1.40;94.50
2226;DHT22;1119;48.288;8.726;2023-02-28T14:27:39;1.40;94.30
2226;DHT22;1119;48.288;8.726;2023-02-28T14:30:42;1.50;94.20
2226;DHT22;1119;48.288;8.726;2023-02-28T14:33:46;1.50;93.90
2226;DHT22;1119;48.288;8.726;2023-02-28T14:36:45;1.50;94.20
2226;DHT22;1119;48.288;8.726;2023-02-28T14:39:33;1.50;93.90
2226;DHT22;1119;48.288;8.726;2023-02-28T14:42:29;1.50;94.10
2226;DHT22;1119;48.288;8.726;2023-02-28T14:45:19;1.60;94.40
2226;DHT22;1119;48.288;8.726;2023-02-28T14:48:10;1.70;94.10
2226;DHT22;1119;48.288;8.726;2023-02-28T14:50:59;1.70;93.80
2226;DHT22;1119;48.288;8.726;2023-02-28T14:53:50;1.60;93.50
2226;DHT22;1119;48.288;8.726;2023-02-28T14:56:39;1.60;93.70
2226;DHT22;1119;48.288;8.726;2023-02-28T14:59:29;1.70;93.60
2226;DHT22;1119;48.288;8.726;2023-02-28T15:02:20;1.70;93.30
2226;DHT22;1119;48.288;8.726;2023-02-28T15:05:30;1.80;93.00
2226;DHT22;1119;48.288;8.726;2023-02-28T15:08:18;1.80;92.90
2226;DHT22;1119;48.288;8.726;2023-02-28T15:11:08;1.90;92.90
2226;DHT22;1119;48.288;8.726;2023-02-28T15:14:00;2.00;93.30
2226;DHT22;1119;48.288;8.726;2023-02-28T15:16:52;2.10;93.30
2226;DHT22;1119;48.288;8.726;2023-02-28T15:19:50;2.00;92.80
2226;DHT22;1119;48.288;8.726;2023-02-28T15:22:40;1.90;92.90
2226;DHT22;1119;48.288;8.726;2023-02-28T15:25:28;1.90;93.00
2226;DHT22;1119;48.288;8.726;2023-02-28T15:28:18;1.80;93.10
2226;DHT22;1119;48.288;8.726;2023-02-28T15:31:21;1.90;93.30
2226;DHT22;1119;48.288;8.726;2023-02-28T15:34:18;1.90;93.40
2226;DHT22;1119;48.288;8.726;2023-02-28T15:37:26;2.00;93.00
2226;DHT22;1119;48.288;8.726;2023-02-28T15:40:27;2.00;92.70
2226;DHT22;1119;48.288;8.726;2023-02-28T15:43:18;2.00;92.70
2226;DHT22;1119;48.288;8.726;2023-02-28T15:46:12;2.00;92.60
2226;DHT22;1119;48.288;8.726;2023-02-28T15:49:01;2.10;92.80
2226;DHT22;1119;48.288;8.726;2023-02-28T15:51:50;2.10;92.70
2226;DHT22;1119;48.288;8.726;2023-02-28T15:54:39;2.10;92.80
2226;DHT22;1119;48.288;8.726;2023-02-28T15:57:30;2.10;92.70
2226;DHT22;1119;48.288;8.726;2023-02-28T16:00:20;2.20;92.60
2226;DHT22;1119;48.288;8.726;2023-02-28T16:03:26;2.20;92.70
2226;DHT22;1119;48.288;8.726;2023-02-28T16:06:32;2.20;92.70
2226;DHT22;1119;48.288;8.726;2023-02-28T16:09:21;2.30;93.00
2226;DHT22;1119;48.288;8.726;2023-02-28T16:12:09;2.30;92.30
2226;DHT22;1119;48.288;8.726;2023-02-28T16:15:05;2.20;92.50
2226;DHT22;1119;48.288;8.726;2023-02-28T16:17:55;2.20;92.30
2226;DHT22;1119;48.288;8.726;2023-02-28T16:20:43;2.20;92.40
2226;DHT22;1119;48.288;8.726;2023-02-28T16:23:31;2.20;92.60
2226;DHT22;1119;48.288;8.726;2023-02-28T16:26:22;2.10;92.70
2226;DHT22;1119;48.288;8.726;2023-02-28T16:29:13;2.20;92.70
2226;DHT22;1119;48.288;8.726;2023-02-28T16:32:05;2.20;92.60
2226;DHT22;1119;48.288;8.726;2023-02-28T16:34:54;2.10;92.70
2226;DHT22;1119;48.288;8.726;2023-02-28T16:37:41;2.20;92.40
2226;DHT22;1119;48.288;8.726;2023-02-28T16:40:33;2.10;92.20
2226;DHT22;1119;48.288;8.726;2023-02-28T16:43:24;2.00;92.40
2226;DHT22;1119;48.288;8.726;2023-02-28T16:46:12;2.10;92.70
2226;DHT22;1119;48.288;8.726;2023-02-28T16:49:01;2.00;92.60
2226;DHT22;1119;48.288;8.726;2023-02-28T16:51:49;1.90;92.50
2226;DHT22;1119;48.288;8.726;2023-02-28T16:54:37;1.90;92.70
2226;DHT22;1119;48.288;8.726;2023-02-28T16:57:25;1.90;92.90
2226;DHT22;1119;48.288;8.726;2023-02-28T17:00:14;1.80;92.90
2226;DHT22;1119;48.288;8.726;2023-02-28T17:03:02;1.80;92.90
2226;DHT22;1119;48.288;8.726;2023-02-28T17:05:51;1.80;92.90
2226;DHT22;1119;48.288;8.726;2023-02-28T17:08:39;1.70;93.00
2226;DHT22;1119;48.288;8.726;2023-02-28T17:11:27;1.70;93.00
2226;DHT22;1119;48.288;8.726;2023-02-28T17:14:15;1.70;93.10
2226;DHT22;1119;48.288;8.726;2023-02-28T17:17:04;1.60;93.10
2226;DHT22;1119;48.288;8.726;2023-02-28T17:19:51;1.50;93.30
2226;DHT22;1119;48.288;8.726;2023-02-28T17:22:41;1.50;93.50
2226;DHT22;1119;48.288;8.726;2023-02-28T17:25:28;1.50;93.70
2226;DHT22;1119;48.288;8.726;2023-02-28T17:28:16;1.50;93.70
2226;DHT22;1119;48.288;8.726;2023-02-28T17:31:04;1.40;93.80
2226;DHT22;1119;48.288;8.726;2023-02-28T17:33:52;1.40;93.90
2226;DHT22;1119;48.288;8.726;2023-02-28T17:36:40;1.40;93.90
2226;DHT22;1119;48.288;8.726;2023-02-28T17:39:29;1.40;93.80
2226;DHT22;1119;48.288;8.726;2023-02-28T17:42:17;1.40;93.90
2226;DHT22;1119;48.288;8.726;2023-02-28T17:45:06;1.30;93.80
2226;DHT22;1119;48.288;8.726;2023-02-28T17:47:54;1.30;93.80
2226;DHT22;1119;48.288;8.726;2023-02-28T17:50:42;1.30;93.80
2226;DHT22;1119;48.288;8.726;2023-02-28T17:53:29;1.30;93.90
2226;DHT22;1119;48.288;8.726;2023-02-28T17:56:21;1.30;93.90
2226;DHT22;1119;48.288;8.726;2023-02-28T17:59:10;1.30;93.90
2226;DHT22;1119;48.288;8.726;2023-02-28T18:01:59;1.30;93.90
2226;DHT22;1119;48.288;8.726;2023-02-28T18:04:47;1.30;94.30
2226;DHT22;1119;48.288;8.726;2023-02-28T18:07:36;1.20;94.00
2226;DHT22;1119;48.288;8.726;2023-02-28T18:10:24;1.20;94.10
2226;DHT22;1119;48.288;8.726;2023-02-28T18:13:14;1.10;94.20
2226;DHT22;1119;48.288;8.726;2023-02-28T18:16:02;1.00;94.30
2226;DHT22;1119;48.288;8.726;2023-02-28T18:18:50;1.00;94.50
2226;DHT22;1119;48.288;8.726;2023-02-28T18:21:38;0.90;94.60
2226;DHT22;1119;48.288;8.726;2023-02-28T18:24:26;0.90;94.40
2226;DHT22;1119;48.288;8.726;2023-02-28T18:27:13;0.90;94.40
2226;DHT22;1119;48.288;8.726;2023-02-28T18:30:03;0.80;94.50
2226;DHT22;1119;48.288;8.726;2023-02-28T18:32:52;0.70;94.60
2226;DHT22;1119;48.288;8.726;2023-02-28T18:35:40;0.70;94.60
2226;DHT22;1119;48.288;8.726;2023-02-28T18:38:29;0.70;94.60
2226;DHT22;1119;48.288;8.726;2023-02-28T18:41:18;0.70;94.60
2226;DHT22;1119;48.288;8.726;2023-02-28T18:44:07;0.70;94.70
2226;DHT22;1119;48.288;8.726;2023-02-28T18:46:56;0.60;94.70
2226;DHT22;1119;48.288;8.726;2023-02-28T18:49:44;0.60;94.60
2226;DHT22;1119;48.288;8.726;2023-02-28T18:52:32;0.60;94.50
2226;DHT22;1119;48.288;8.726;2023-02-28T18:55:20;0.70;94.60
2226;DHT22;1119;48.288;8.726;2023-02-28T18:58:08;0.60;94.50